LPFL/FLW METAR and TAF weather

Enter ICAO airport designator
Station Type Date Time Source
LPFL METAR 2022/11/30 11:00 UTC NOAA

LPFL 301100Z VRB02KT 9999 FEW020 18/12 Q1022


Station Type Date Time Source
LPFL Decoded METAR 2022/11/30 11:00 UTC NOAA

Flores Acores , Portugal (LPFL) 39-27N 031-08W 29M
Nov 30, 2022 - 06:00 AM EST / 2022.11.30 1100 UTC
Wind: Variable at 2 MPH (2 KT):0
Visibility: greater than 7 mile(s):0
Sky conditions: mostly clear
Temperature: 64 F (18 C)
Dew Point: 53 F (12 C)
Relative Humidity: 67%
Pressure (altimeter): 30.18 in. Hg (1022 hPa)
ob: LPFL 301100Z VRB02KT 9999 FEW020 18/12 Q1022
cycle: 11

Station Type Date Time Source
LPFL TAF UTC NOAA

Error!

Example: see airport list